sensor_id;sensor_type;location;lat;lon;timestamp;P1;durP1;ratioP1;P2;durP2;ratioP2
19521;SDS011;9905;52.126;5.596;2022-12-24T00:01:27;28.33;;;26.23;;
19521;SDS011;9905;52.126;5.596;2022-12-24T00:03:54;27.52;;;25.45;;
19521;SDS011;9905;52.126;5.596;2022-12-24T00:06:21;29.42;;;26.23;;
19521;SDS011;9905;52.126;5.596;2022-12-24T00:08:49;28.98;;;26.80;;
19521;SDS011;9905;52.126;5.596;2022-12-24T00:11:17;30.38;;;27.23;;
19521;SDS011;9905;52.126;5.596;2022-12-24T00:13:45;28.40;;;26.50;;
19521;SDS011;9905;52.126;5.596;2022-12-24T00:16:12;28.55;;;26.15;;
19521;SDS011;9905;52.126;5.596;2022-12-24T00:18:38;29.67;;;27.25;;
19521;SDS011;9905;52.126;5.596;2022-12-24T00:21:05;29.02;;;26.85;;
19521;SDS011;9905;52.126;5.596;2022-12-24T00:23:32;30.17;;;27.38;;
19521;SDS011;9905;52.126;5.596;2022-12-24T00:25:59;28.83;;;26.45;;
19521;SDS011;9905;52.126;5.596;2022-12-24T00:28:27;27.75;;;25.52;;
19521;SDS011;9905;52.126;5.596;2022-12-24T00:30:53;28.60;;;26.50;;
19521;SDS011;9905;52.126;5.596;2022-12-24T00:33:20;28.23;;;25.58;;
19521;SDS011;9905;52.126;5.596;2022-12-24T00:35:48;28.45;;;25.83;;
19521;SDS011;9905;52.126;5.596;2022-12-24T00:38:16;27.95;;;25.13;;
19521;SDS011;9905;52.126;5.596;2022-12-24T00:40:43;28.88;;;26.20;;
19521;SDS011;9905;52.126;5.596;2022-12-24T00:43:10;29.15;;;26.52;;
19521;SDS011;9905;52.126;5.596;2022-12-24T00:45:38;27.23;;;24.75;;
19521;SDS011;9905;52.126;5.596;2022-12-24T00:48:05;27.55;;;24.95;;
19521;SDS011;9905;52.126;5.596;2022-12-24T00:50:32;27.73;;;25.40;;
19521;SDS011;9905;52.126;5.596;2022-12-24T00:52:58;27.35;;;25.10;;
19521;SDS011;9905;52.126;5.596;2022-12-24T00:55:25;27.95;;;25.15;;
19521;SDS011;9905;52.126;5.596;2022-12-24T00:57:52;26.70;;;24.20;;
19521;SDS011;9905;52.126;5.596;2022-12-24T01:00:19;24.73;;;23.08;;
19521;SDS011;9905;52.126;5.596;2022-12-24T01:02:47;27.83;;;24.55;;
19521;SDS011;9905;52.126;5.596;2022-12-24T01:05:13;26.65;;;24.55;;
19521;SDS011;9905;52.126;5.596;2022-12-24T01:07:40;27.30;;;24.35;;
19521;SDS011;9905;52.126;5.596;2022-12-24T01:10:09;27.77;;;25.70;;
19521;SDS011;9905;52.126;5.596;2022-12-24T01:12:37;28.00;;;25.13;;
19521;SDS011;9905;52.126;5.596;2022-12-24T01:15:04;27.45;;;24.67;;
19521;SDS011;9905;52.126;5.596;2022-12-24T01:17:32;28.58;;;24.77;;
19521;SDS011;9905;52.126;5.596;2022-12-24T01:20:00;28.30;;;25.63;;
19521;SDS011;9905;52.126;5.596;2022-12-24T01:22:29;26.52;;;24.08;;
19521;SDS011;9905;52.126;5.596;2022-12-24T01:24:55;25.92;;;23.52;;
19521;SDS011;9905;52.126;5.596;2022-12-24T01:27:22;26.65;;;24.17;;
19521;SDS011;9905;52.126;5.596;2022-12-24T01:29:49;27.48;;;24.67;;
19521;SDS011;9905;52.126;5.596;2022-12-24T01:32:15;28.50;;;25.67;;
19521;SDS011;9905;52.126;5.596;2022-12-24T01:34:42;27.02;;;24.60;;
19521;SDS011;9905;52.126;5.596;2022-12-24T01:37:10;27.63;;;25.50;;
19521;SDS011;9905;52.126;5.596;2022-12-24T01:39:37;34.17;;;26.30;;
19521;SDS011;9905;52.126;5.596;2022-12-24T01:42:10;27.98;;;25.73;;
19521;SDS011;9905;52.126;5.596;2022-12-24T01:48:03;32.60;;;27.55;;
19521;SDS011;9905;52.126;5.596;2022-12-24T01:50:32;29.35;;;26.27;;
19521;SDS011;9905;52.126;5.596;2022-12-24T01:53:00;30.85;;;27.73;;
19521;SDS011;9905;52.126;5.596;2022-12-24T01:55:29;28.52;;;26.33;;
19521;SDS011;9905;52.126;5.596;2022-12-24T01:57:57;29.77;;;26.80;;
19521;SDS011;9905;52.126;5.596;2022-12-24T02:00:24;30.27;;;27.73;;
19521;SDS011;9905;52.126;5.596;2022-12-24T02:02:51;30.42;;;27.42;;
19521;SDS011;9905;52.126;5.596;2022-12-24T02:05:21;31.50;;;27.50;;
19521;SDS011;9905;52.126;5.596;2022-12-24T02:07:50;30.85;;;27.58;;
19521;SDS011;9905;52.126;5.596;2022-12-24T02:10:19;31.52;;;27.02;;
19521;SDS011;9905;52.126;5.596;2022-12-24T02:12:46;33.67;;;27.27;;
19521;SDS011;9905;52.126;5.596;2022-12-24T02:15:13;29.67;;;26.88;;
19521;SDS011;9905;52.126;5.596;2022-12-24T02:17:45;30.85;;;27.67;;
19521;SDS011;9905;52.126;5.596;2022-12-24T02:20:26;29.67;;;27.30;;
19521;SDS011;9905;52.126;5.596;2022-12-24T02:26:17;30.30;;;27.48;;
19521;SDS011;9905;52.126;5.596;2022-12-24T02:29:06;30.83;;;28.50;;
19521;SDS011;9905;52.126;5.596;2022-12-24T02:31:49;31.88;;;29.05;;
19521;SDS011;9905;52.126;5.596;2022-12-24T02:34:21;33.28;;;29.65;;
19521;SDS011;9905;52.126;5.596;2022-12-24T02:36:54;37.80;;;30.48;;
19521;SDS011;9905;52.126;5.596;2022-12-24T02:39:26;31.25;;;28.98;;
19521;SDS011;9905;52.126;5.596;2022-12-24T02:41:58;32.78;;;29.38;;
19521;SDS011;9905;52.126;5.596;2022-12-24T02:44:34;35.25;;;32.17;;
19521;SDS011;9905;52.126;5.596;2022-12-24T02:47:06;35.28;;;31.73;;
19521;SDS011;9905;52.126;5.596;2022-12-24T02:49:34;33.97;;;30.13;;
19521;SDS011;9905;52.126;5.596;2022-12-24T02:52:02;34.50;;;31.02;;
19521;SDS011;9905;52.126;5.596;2022-12-24T02:54:29;33.78;;;31.17;;
19521;SDS011;9905;52.126;5.596;2022-12-24T02:57:03;34.90;;;31.90;;
19521;SDS011;9905;52.126;5.596;2022-12-24T02:59:44;34.65;;;31.48;;
19521;SDS011;9905;52.126;5.596;2022-12-24T03:02:35;33.17;;;30.55;;
19521;SDS011;9905;52.126;5.596;2022-12-24T03:05:12;34.53;;;31.67;;
19521;SDS011;9905;52.126;5.596;2022-12-24T03:07:47;33.65;;;30.50;;
19521;SDS011;9905;52.126;5.596;2022-12-24T03:10:26;33.25;;;30.67;;
19521;SDS011;9905;52.126;5.596;2022-12-24T03:12:56;33.40;;;30.42;;
19521;SDS011;9905;52.126;5.596;2022-12-24T03:15:27;33.20;;;30.55;;
19521;SDS011;9905;52.126;5.596;2022-12-24T03:18:00;33.10;;;30.58;;
19521;SDS011;9905;52.126;5.596;2022-12-24T03:20:30;35.88;;;32.17;;
19521;SDS011;9905;52.126;5.596;2022-12-24T03:23:00;33.92;;;31.50;;
19521;SDS011;9905;52.126;5.596;2022-12-24T03:25:28;33.90;;;30.80;;
19521;SDS011;9905;52.126;5.596;2022-12-24T03:27:56;33.75;;;31.00;;
19521;SDS011;9905;52.126;5.596;2022-12-24T03:30:23;33.53;;;31.05;;
19521;SDS011;9905;52.126;5.596;2022-12-24T03:32:51;36.10;;;32.85;;
19521;SDS011;9905;52.126;5.596;2022-12-24T03:35:19;35.17;;;32.53;;
19521;SDS011;9905;52.126;5.596;2022-12-24T03:37:46;34.83;;;32.00;;
19521;SDS011;9905;52.126;5.596;2022-12-24T03:40:13;33.85;;;31.38;;
19521;SDS011;9905;52.126;5.596;2022-12-24T03:42:40;34.65;;;31.60;;
19521;SDS011;9905;52.126;5.596;2022-12-24T03:45:07;35.53;;;32.47;;
19521;SDS011;9905;52.126;5.596;2022-12-24T03:47:34;36.95;;;33.60;;
19521;SDS011;9905;52.126;5.596;2022-12-24T03:50:01;34.60;;;32.22;;
19521;SDS011;9905;52.126;5.596;2022-12-24T03:52:29;36.75;;;34.05;;
19521;SDS011;9905;52.126;5.596;2022-12-24T03:54:56;36.38;;;33.47;;
19521;SDS011;9905;52.126;5.596;2022-12-24T03:57:23;36.28;;;33.38;;
19521;SDS011;9905;52.126;5.596;2022-12-24T03:59:49;37.80;;;35.10;;
19521;SDS011;9905;52.126;5.596;2022-12-24T04:02:16;37.78;;;34.88;;
19521;SDS011;9905;52.126;5.596;2022-12-24T04:04:43;42.00;;;33.83;;
19521;SDS011;9905;52.126;5.596;2022-12-24T04:07:10;38.15;;;34.15;;
19521;SDS011;9905;52.126;5.596;2022-12-24T04:09:38;38.60;;;35.35;;
19521;SDS011;9905;52.126;5.596;2022-12-24T04:12:05;37.88;;;34.20;;
19521;SDS011;9905;52.126;5.596;2022-12-24T04:14:32;37.28;;;34.30;;
19521;SDS011;9905;52.126;5.596;2022-12-24T04:16:59;37.75;;;34.50;;
19521;SDS011;9905;52.126;5.596;2022-12-24T04:19:26;37.92;;;34.72;;
19521;SDS011;9905;52.126;5.596;2022-12-24T04:21:52;37.67;;;34.10;;
19521;SDS011;9905;52.126;5.596;2022-12-24T04:24:19;38.80;;;35.22;;
19521;SDS011;9905;52.126;5.596;2022-12-24T04:26:47;38.22;;;34.92;;
19521;SDS011;9905;52.126;5.596;2022-12-24T04:29:14;39.47;;;36.30;;
19521;SDS011;9905;52.126;5.596;2022-12-24T04:31:41;40.28;;;36.10;;
19521;SDS011;9905;52.126;5.596;2022-12-24T04:34:07;39.28;;;35.40;;
19521;SDS011;9905;52.126;5.596;2022-12-24T04:36:34;40.45;;;36.72;;
19521;SDS011;9905;52.126;5.596;2022-12-24T04:39:01;38.47;;;34.97;;
19521;SDS011;9905;52.126;5.596;2022-12-24T04:41:28;39.95;;;36.33;;
19521;SDS011;9905;52.126;5.596;2022-12-24T04:43:56;39.67;;;36.10;;
19521;SDS011;9905;52.126;5.596;2022-12-24T04:46:24;39.25;;;35.92;;
19521;SDS011;9905;52.126;5.596;2022-12-24T04:48:54;39.67;;;36.20;;
19521;SDS011;9905;52.126;5.596;2022-12-24T04:51:22;37.60;;;34.28;;
19521;SDS011;9905;52.126;5.596;2022-12-24T04:53:50;40.20;;;36.25;;
19521;SDS011;9905;52.126;5.596;2022-12-24T04:56:18;38.65;;;35.25;;
19521;SDS011;9905;52.126;5.596;2022-12-24T04:58:46;39.67;;;35.63;;
19521;SDS011;9905;52.126;5.596;2022-12-24T05:01:16;37.75;;;34.60;;
19521;SDS011;9905;52.126;5.596;2022-12-24T05:03:45;40.38;;;36.47;;
19521;SDS011;9905;52.126;5.596;2022-12-24T05:06:13;38.63;;;36.08;;
19521;SDS011;9905;52.126;5.596;2022-12-24T05:08:41;39.10;;;36.10;;
19521;SDS011;9905;52.126;5.596;2022-12-24T05:11:08;39.22;;;35.85;;
19521;SDS011;9905;52.126;5.596;2022-12-24T05:13:38;36.15;;;33.42;;
19521;SDS011;9905;52.126;5.596;2022-12-24T05:16:05;39.83;;;36.28;;
19521;SDS011;9905;52.126;5.596;2022-12-24T05:18:33;38.13;;;34.88;;
19521;SDS011;9905;52.126;5.596;2022-12-24T05:21:00;38.83;;;35.53;;
19521;SDS011;9905;52.126;5.596;2022-12-24T05:23:26;37.85;;;34.40;;
19521;SDS011;9905;52.126;5.596;2022-12-24T05:26:12;37.58;;;34.60;;
19521;SDS011;9905;52.126;5.596;2022-12-24T05:28:48;36.92;;;33.95;;
19521;SDS011;9905;52.126;5.596;2022-12-24T05:31:15;37.60;;;35.13;;
19521;SDS011;9905;52.126;5.596;2022-12-24T05:33:43;37.92;;;34.83;;
19521;SDS011;9905;52.126;5.596;2022-12-24T05:36:11;37.42;;;34.35;;
19521;SDS011;9905;52.126;5.596;2022-12-24T05:38:38;37.50;;;34.53;;
19521;SDS011;9905;52.126;5.596;2022-12-24T05:41:05;39.55;;;35.15;;
19521;SDS011;9905;52.126;5.596;2022-12-24T05:43:31;37.40;;;34.40;;
19521;SDS011;9905;52.126;5.596;2022-12-24T05:45:58;36.90;;;34.35;;
19521;SDS011;9905;52.126;5.596;2022-12-24T05:48:25;39.88;;;36.30;;
19521;SDS011;9905;52.126;5.596;2022-12-24T05:50:54;40.78;;;36.92;;
19521;SDS011;9905;52.126;5.596;2022-12-24T05:53:21;40.38;;;36.90;;
19521;SDS011;9905;52.126;5.596;2022-12-24T05:55:48;39.15;;;35.42;;
19521;SDS011;9905;52.126;5.596;2022-12-24T05:58:14;37.78;;;34.60;;
19521;SDS011;9905;52.126;5.596;2022-12-24T06:00:41;38.85;;;35.75;;
19521;SDS011;9905;52.126;5.596;2022-12-24T06:03:08;39.80;;;35.55;;
19521;SDS011;9905;52.126;5.596;2022-12-24T06:05:35;39.05;;;35.78;;
19521;SDS011;9905;52.126;5.596;2022-12-24T06:08:04;39.40;;;35.90;;
19521;SDS011;9905;52.126;5.596;2022-12-24T06:10:31;38.30;;;34.75;;
19521;SDS011;9905;52.126;5.596;2022-12-24T06:12:57;37.35;;;33.75;;
19521;SDS011;9905;52.126;5.596;2022-12-24T06:15:24;38.17;;;35.00;;
19521;SDS011;9905;52.126;5.596;2022-12-24T06:17:51;40.40;;;35.95;;
19521;SDS011;9905;52.126;5.596;2022-12-24T06:20:18;39.47;;;35.42;;
19521;SDS011;9905;52.126;5.596;2022-12-24T06:22:44;37.83;;;34.85;;
19521;SDS011;9905;52.126;5.596;2022-12-24T06:25:12;36.80;;;33.53;;
19521;SDS011;9905;52.126;5.596;2022-12-24T06:27:39;37.88;;;34.30;;
19521;SDS011;9905;52.126;5.596;2022-12-24T06:30:06;38.00;;;34.00;;
19521;SDS011;9905;52.126;5.596;2022-12-24T06:32:34;37.25;;;33.78;;
19521;SDS011;9905;52.126;5.596;2022-12-24T06:35:01;38.22;;;34.45;;
19521;SDS011;9905;52.126;5.596;2022-12-24T06:37:27;40.35;;;36.92;;
19521;SDS011;9905;52.126;5.596;2022-12-24T06:39:54;39.47;;;35.58;;
19521;SDS011;9905;52.126;5.596;2022-12-24T06:42:22;40.85;;;36.38;;
19521;SDS011;9905;52.126;5.596;2022-12-24T06:44:49;39.55;;;35.85;;
19521;SDS011;9905;52.126;5.596;2022-12-24T06:47:16;43.05;;;35.60;;
19521;SDS011;9905;52.126;5.596;2022-12-24T06:49:42;39.05;;;35.58;;
19521;SDS011;9905;52.126;5.596;2022-12-24T06:52:09;39.10;;;35.20;;
19521;SDS011;9905;52.126;5.596;2022-12-24T06:54:36;46.00;;;35.50;;
19521;SDS011;9905;52.126;5.596;2022-12-24T06:57:03;38.50;;;34.90;;
19521;SDS011;9905;52.126;5.596;2022-12-24T06:59:32;39.55;;;35.55;;
19521;SDS011;9905;52.126;5.596;2022-12-24T07:01:59;39.35;;;35.85;;
19521;SDS011;9905;52.126;5.596;2022-12-24T07:04:25;38.42;;;35.47;;
19521;SDS011;9905;52.126;5.596;2022-12-24T07:06:52;38.42;;;34.38;;
19521;SDS011;9905;52.126;5.596;2022-12-24T07:09:19;39.05;;;35.13;;
19521;SDS011;9905;52.126;5.596;2022-12-24T07:11:46;39.25;;;35.22;;
19521;SDS011;9905;52.126;5.596;2022-12-24T07:14:12;43.42;;;35.95;;
19521;SDS011;9905;52.126;5.596;2022-12-24T07:16:40;40.78;;;36.85;;
19521;SDS011;9905;52.126;5.596;2022-12-24T07:19:07;39.33;;;35.33;;
19521;SDS011;9905;52.126;5.596;2022-12-24T07:21:34;36.58;;;33.47;;
19521;SDS011;9905;52.126;5.596;2022-12-24T07:24:01;41.65;;;35.03;;
19521;SDS011;9905;52.126;5.596;2022-12-24T07:26:27;38.15;;;34.25;;
19521;SDS011;9905;52.126;5.596;2022-12-24T07:28:54;35.17;;;31.90;;
19521;SDS011;9905;52.126;5.596;2022-12-24T07:31:21;39.33;;;34.72;;
19521;SDS011;9905;52.126;5.596;2022-12-24T07:33:49;36.90;;;33.42;;
19521;SDS011;9905;52.126;5.596;2022-12-24T07:36:16;39.13;;;34.92;;
19521;SDS011;9905;52.126;5.596;2022-12-24T07:38:45;36.80;;;33.08;;
19521;SDS011;9905;52.126;5.596;2022-12-24T07:41:12;37.85;;;34.00;;
19521;SDS011;9905;52.126;5.596;2022-12-24T07:43:39;36.65;;;33.03;;
19521;SDS011;9905;52.126;5.596;2022-12-24T07:46:06;41.22;;;33.30;;
19521;SDS011;9905;52.126;5.596;2022-12-24T07:48:33;38.17;;;34.38;;
19521;SDS011;9905;52.126;5.596;2022-12-24T07:51:01;36.60;;;33.47;;
19521;SDS011;9905;52.126;5.596;2022-12-24T07:53:28;36.60;;;33.65;;
19521;SDS011;9905;52.126;5.596;2022-12-24T07:55:55;42.22;;;33.50;;
19521;SDS011;9905;52.126;5.596;2022-12-24T07:58:22;41.47;;;33.50;;
19521;SDS011;9905;52.126;5.596;2022-12-24T08:00:53;44.83;;;32.78;;
19521;SDS011;9905;52.126;5.596;2022-12-24T08:03:22;36.72;;;32.83;;
19521;SDS011;9905;52.126;5.596;2022-12-24T08:05:49;35.30;;;32.00;;
19521;SDS011;9905;52.126;5.596;2022-12-24T08:08:18;35.85;;;32.38;;
19521;SDS011;9905;52.126;5.596;2022-12-24T08:10:45;37.75;;;33.85;;
19521;SDS011;9905;52.126;5.596;2022-12-24T08:13:12;37.92;;;34.60;;
19521;SDS011;9905;52.126;5.596;2022-12-24T08:15:39;39.13;;;35.05;;
19521;SDS011;9905;52.126;5.596;2022-12-24T08:18:06;36.97;;;33.15;;
19521;SDS011;9905;52.126;5.596;2022-12-24T08:20:33;36.95;;;33.55;;
19521;SDS011;9905;52.126;5.596;2022-12-24T08:23:02;37.33;;;33.35;;
19521;SDS011;9905;52.126;5.596;2022-12-24T08:25:30;35.42;;;31.90;;
19521;SDS011;9905;52.126;5.596;2022-12-24T08:27:57;34.08;;;30.50;;
19521;SDS011;9905;52.126;5.596;2022-12-24T08:30:23;35.35;;;31.63;;
19521;SDS011;9905;52.126;5.596;2022-12-24T08:32:50;34.40;;;31.33;;
19521;SDS011;9905;52.126;5.596;2022-12-24T08:35:18;34.20;;;31.23;;
19521;SDS011;9905;52.126;5.596;2022-12-24T08:37:45;35.15;;;31.83;;
19521;SDS011;9905;52.126;5.596;2022-12-24T08:40:12;37.55;;;32.10;;
19521;SDS011;9905;52.126;5.596;2022-12-24T08:42:40;34.83;;;32.10;;
19521;SDS011;9905;52.126;5.596;2022-12-24T08:45:07;36.65;;;32.85;;
19521;SDS011;9905;52.126;5.596;2022-12-24T08:47:35;35.30;;;31.73;;
19521;SDS011;9905;52.126;5.596;2022-12-24T08:50:02;39.13;;;32.90;;
19521;SDS011;9905;52.126;5.596;2022-12-24T08:52:30;36.13;;;32.75;;
19521;SDS011;9905;52.126;5.596;2022-12-24T08:54:57;36.97;;;33.35;;
19521;SDS011;9905;52.126;5.596;2022-12-24T08:57:24;35.17;;;31.15;;
19521;SDS011;9905;52.126;5.596;2022-12-24T08:59:52;35.28;;;32.10;;
19521;SDS011;9905;52.126;5.596;2022-12-24T09:02:19;34.05;;;30.75;;
19521;SDS011;9905;52.126;5.596;2022-12-24T09:04:45;33.90;;;30.73;;
19521;SDS011;9905;52.126;5.596;2022-12-24T09:07:12;35.85;;;30.63;;
19521;SDS011;9905;52.126;5.596;2022-12-24T09:09:39;34.33;;;30.60;;
19521;SDS011;9905;52.126;5.596;2022-12-24T09:12:06;35.33;;;30.58;;
19521;SDS011;9905;52.126;5.596;2022-12-24T09:14:34;33.53;;;30.88;;
19521;SDS011;9905;52.126;5.596;2022-12-24T09:17:02;35.75;;;32.30;;
19521;SDS011;9905;52.126;5.596;2022-12-24T09:19:29;36.58;;;31.35;;
19521;SDS011;9905;52.126;5.596;2022-12-24T09:21:55;34.03;;;30.48;;
19521;SDS011;9905;52.126;5.596;2022-12-24T09:24:22;33.85;;;30.83;;
19521;SDS011;9905;52.126;5.596;2022-12-24T09:26:49;33.88;;;30.60;;
19521;SDS011;9905;52.126;5.596;2022-12-24T09:29:15;33.58;;;30.65;;
19521;SDS011;9905;52.126;5.596;2022-12-24T09:31:42;35.17;;;31.80;;
19521;SDS011;9905;52.126;5.596;2022-12-24T09:34:10;35.15;;;31.95;;
19521;SDS011;9905;52.126;5.596;2022-12-24T09:36:37;35.90;;;32.25;;
19521;SDS011;9905;52.126;5.596;2022-12-24T09:39:04;32.20;;;29.35;;
19521;SDS011;9905;52.126;5.596;2022-12-24T09:41:35;35.50;;;31.77;;
19521;SDS011;9905;52.126;5.596;2022-12-24T09:44:10;35.47;;;31.48;;
19521;SDS011;9905;52.126;5.596;2022-12-24T09:46:47;32.88;;;29.70;;
19521;SDS011;9905;52.126;5.596;2022-12-24T09:49:19;33.08;;;29.67;;
19521;SDS011;9905;52.126;5.596;2022-12-24T09:51:50;32.70;;;29.30;;
19521;SDS011;9905;52.126;5.596;2022-12-24T09:54:21;33.83;;;30.95;;
19521;SDS011;9905;52.126;5.596;2022-12-24T09:56:50;31.10;;;28.50;;
19521;SDS011;9905;52.126;5.596;2022-12-24T09:59:19;31.35;;;29.00;;
19521;SDS011;9905;52.126;5.596;2022-12-24T10:01:49;30.30;;;28.08;;
19521;SDS011;9905;52.126;5.596;2022-12-24T10:04:19;31.05;;;27.90;;
19521;SDS011;9905;52.126;5.596;2022-12-24T10:06:53;31.15;;;28.42;;
19521;SDS011;9905;52.126;5.596;2022-12-24T10:09:28;31.05;;;28.23;;
19521;SDS011;9905;52.126;5.596;2022-12-24T10:12:04;31.52;;;28.15;;
19521;SDS011;9905;52.126;5.596;2022-12-24T10:14:39;31.20;;;28.27;;
19521;SDS011;9905;52.126;5.596;2022-12-24T10:17:26;30.90;;;28.33;;
19521;SDS011;9905;52.126;5.596;2022-12-24T10:20:07;31.08;;;28.38;;
19521;SDS011;9905;52.126;5.596;2022-12-24T10:22:55;31.10;;;28.15;;
19521;SDS011;9905;52.126;5.596;2022-12-24T10:25:28;30.05;;;27.83;;
19521;SDS011;9905;52.126;5.596;2022-12-24T10:27:59;30.38;;;27.48;;
19521;SDS011;9905;52.126;5.596;2022-12-24T10:30:28;29.85;;;26.65;;
19521;SDS011;9905;52.126;5.596;2022-12-24T10:32:55;31.88;;;28.75;;
19521;SDS011;9905;52.126;5.596;2022-12-24T10:35:24;29.13;;;26.38;;
19521;SDS011;9905;52.126;5.596;2022-12-24T10:37:54;28.88;;;26.02;;
19521;SDS011;9905;52.126;5.596;2022-12-24T10:40:25;28.30;;;25.75;;
19521;SDS011;9905;52.126;5.596;2022-12-24T10:42:57;28.80;;;26.02;;
19521;SDS011;9905;52.126;5.596;2022-12-24T10:45:24;27.90;;;25.42;;
19521;SDS011;9905;52.126;5.596;2022-12-24T10:48:04;30.48;;;26.50;;
19521;SDS011;9905;52.126;5.596;2022-12-24T10:50:40;29.25;;;26.35;;
19521;SDS011;9905;52.126;5.596;2022-12-24T10:53:13;30.60;;;25.25;;
19521;SDS011;9905;52.126;5.596;2022-12-24T10:55:43;27.55;;;25.45;;
19521;SDS011;9905;52.126;5.596;2022-12-24T10:58:14;27.08;;;24.48;;
19521;SDS011;9905;52.126;5.596;2022-12-24T11:00:42;27.50;;;25.00;;
19521;SDS011;9905;52.126;5.596;2022-12-24T11:03:22;28.58;;;25.73;;
19521;SDS011;9905;52.126;5.596;2022-12-24T11:06:02;27.95;;;25.50;;
19521;SDS011;9905;52.126;5.596;2022-12-24T11:08:31;29.63;;;26.88;;
19521;SDS011;9905;52.126;5.596;2022-12-24T11:10:59;27.92;;;25.45;;
19521;SDS011;9905;52.126;5.596;2022-12-24T11:13:28;26.35;;;23.90;;
19521;SDS011;9905;52.126;5.596;2022-12-24T11:16:04;25.38;;;23.13;;
19521;SDS011;9905;52.126;5.596;2022-12-24T11:18:33;25.42;;;23.40;;
19521;SDS011;9905;52.126;5.596;2022-12-24T11:21:03;24.33;;;21.52;;
19521;SDS011;9905;52.126;5.596;2022-12-24T11:23:31;25.83;;;21.58;;
19521;SDS011;9905;52.126;5.596;2022-12-24T11:25:58;24.25;;;22.20;;
19521;SDS011;9905;52.126;5.596;2022-12-24T11:28:25;25.52;;;22.50;;
19521;SDS011;9905;52.126;5.596;2022-12-24T11:30:55;28.50;;;21.35;;
19521;SDS011;9905;52.126;5.596;2022-12-24T11:33:24;23.23;;;19.77;;
19521;SDS011;9905;52.126;5.596;2022-12-24T11:36:01;20.25;;;18.33;;
19521;SDS011;9905;52.126;5.596;2022-12-24T11:38:31;22.25;;;20.02;;
19521;SDS011;9905;52.126;5.596;2022-12-24T11:41:04;20.92;;;18.80;;
19521;SDS011;9905;52.126;5.596;2022-12-24T11:43:36;20.58;;;18.67;;
19521;SDS011;9905;52.126;5.596;2022-12-24T11:46:13;17.80;;;16.08;;
19521;SDS011;9905;52.126;5.596;2022-12-24T11:48:42;15.95;;;13.48;;
19521;SDS011;9905;52.126;5.596;2022-12-24T11:51:19;14.93;;;13.30;;
19521;SDS011;9905;52.126;5.596;2022-12-24T11:53:49;16.33;;;14.73;;
19521;SDS011;9905;52.126;5.596;2022-12-24T11:56:26;14.65;;;13.65;;
19521;SDS011;9905;52.126;5.596;2022-12-24T11:58:58;15.75;;;13.23;;
19521;SDS011;9905;52.126;5.596;2022-12-24T12:01:29;15.55;;;14.40;;
19521;SDS011;9905;52.126;5.596;2022-12-24T12:03:59;15.52;;;13.98;;
19521;SDS011;9905;52.126;5.596;2022-12-24T12:06:30;16.10;;;14.18;;
19521;SDS011;9905;52.126;5.596;2022-12-24T12:09:04;17.42;;;14.05;;
19521;SDS011;9905;52.126;5.596;2022-12-24T12:11:32;15.65;;;13.57;;
19521;SDS011;9905;52.126;5.596;2022-12-24T12:14:00;14.60;;;13.40;;
19521;SDS011;9905;52.126;5.596;2022-12-24T12:16:31;15.95;;;13.70;;
19521;SDS011;9905;52.126;5.596;2022-12-24T12:19:24;20.52;;;14.65;;
19521;SDS011;9905;52.126;5.596;2022-12-24T12:21:54;14.75;;;13.38;;
19521;SDS011;9905;52.126;5.596;2022-12-24T12:24:21;14.60;;;12.95;;
19521;SDS011;9905;52.126;5.596;2022-12-24T12:26:54;12.57;;;11.73;;
19521;SDS011;9905;52.126;5.596;2022-12-24T12:29:26;18.45;;;12.88;;
19521;SDS011;9905;52.126;5.596;2022-12-24T12:31:58;14.55;;;13.10;;
19521;SDS011;9905;52.126;5.596;2022-12-24T12:34:31;14.43;;;12.88;;
19521;SDS011;9905;52.126;5.596;2022-12-24T12:37:05;15.77;;;14.32;;
19521;SDS011;9905;52.126;5.596;2022-12-24T12:39:37;19.92;;;15.15;;
19521;SDS011;9905;52.126;5.596;2022-12-24T12:42:06;15.38;;;13.95;;
19521;SDS011;9905;52.126;5.596;2022-12-24T12:44:46;17.00;;;15.25;;
19521;SDS011;9905;52.126;5.596;2022-12-24T12:47:26;16.73;;;14.38;;
19521;SDS011;9905;52.126;5.596;2022-12-24T12:50:02;18.20;;;15.43;;
19521;SDS011;9905;52.126;5.596;2022-12-24T12:55:38;23.05;;;14.45;;
19521;SDS011;9905;52.126;5.596;2022-12-24T12:58:11;19.88;;;13.50;;
19521;SDS011;9905;52.126;5.596;2022-12-24T13:00:44;15.82;;;13.85;;
19521;SDS011;9905;52.126;5.596;2022-12-24T13:03:23;16.92;;;14.90;;
19521;SDS011;9905;52.126;5.596;2022-12-24T13:06:13;16.20;;;13.65;;
19521;SDS011;9905;52.126;5.596;2022-12-24T13:09:25;19.17;;;11.48;;
19521;SDS011;9905;52.126;5.596;2022-12-24T13:12:20;12.63;;;11.65;;
19521;SDS011;9905;52.126;5.596;2022-12-24T13:18:09;16.75;;;11.90;;
19521;SDS011;9905;52.126;5.596;2022-12-24T13:20:49;23.30;;;17.10;;
19521;SDS011;9905;52.126;5.596;2022-12-24T13:23:17;13.50;;;12.18;;
19521;SDS011;9905;52.126;5.596;2022-12-24T13:25:49;15.45;;;11.88;;
19521;SDS011;9905;52.126;5.596;2022-12-24T13:28:29;13.77;;;12.15;;
19521;SDS011;9905;52.126;5.596;2022-12-24T13:33:52;14.98;;;13.48;;
19521;SDS011;9905;52.126;5.596;2022-12-24T13:36:20;14.90;;;12.48;;
19521;SDS011;9905;52.126;5.596;2022-12-24T13:38:47;15.63;;;12.93;;
19521;SDS011;9905;52.126;5.596;2022-12-24T13:44:26;13.70;;;12.27;;
19521;SDS011;9905;52.126;5.596;2022-12-24T13:47:01;21.27;;;12.38;;
19521;SDS011;9905;52.126;5.596;2022-12-24T13:49:45;12.75;;;11.55;;
19521;SDS011;9905;52.126;5.596;2022-12-24T13:52:20;13.13;;;11.68;;
19521;SDS011;9905;52.126;5.596;2022-12-24T13:54:59;22.83;;;12.57;;
19521;SDS011;9905;52.126;5.596;2022-12-24T13:57:40;21.77;;;15.35;;
19521;SDS011;9905;52.126;5.596;2022-12-24T14:00:35;22.58;;;16.95;;
19521;SDS011;9905;52.126;5.596;2022-12-24T14:03:06;23.40;;;14.40;;
19521;SDS011;9905;52.126;5.596;2022-12-24T14:05:56;17.13;;;11.82;;
19521;SDS011;9905;52.126;5.596;2022-12-24T14:08:36;20.73;;;14.25;;
19521;SDS011;9905;52.126;5.596;2022-12-24T14:11:10;17.38;;;11.73;;
19521;SDS011;9905;52.126;5.596;2022-12-24T14:16:41;15.45;;;11.68;;
19521;SDS011;9905;52.126;5.596;2022-12-24T14:19:17;12.07;;;10.90;;
19521;SDS011;9905;52.126;5.596;2022-12-24T14:21:58;13.45;;;11.18;;
19521;SDS011;9905;52.126;5.596;2022-12-24T14:24:30;10.85;;;9.65;;
19521;SDS011;9905;52.126;5.596;2022-12-24T14:27:05;15.52;;;10.73;;
19521;SDS011;9905;52.126;5.596;2022-12-24T14:29:40;14.10;;;9.43;;
19521;SDS011;9905;52.126;5.596;2022-12-24T14:32:15;10.68;;;9.52;;
19521;SDS011;9905;52.126;5.596;2022-12-24T14:34:42;13.55;;;12.00;;
19521;SDS011;9905;52.126;5.596;2022-12-24T14:37:10;22.17;;;16.88;;
19521;SDS011;9905;52.126;5.596;2022-12-24T14:39:40;18.48;;;16.52;;
19521;SDS011;9905;52.126;5.596;2022-12-24T14:42:16;52.90;;;41.65;;
19521;SDS011;9905;52.126;5.596;2022-12-24T14:44:52;71.40;;;56.33;;
19521;SDS011;9905;52.126;5.596;2022-12-24T14:47:29;105.97;;;75.22;;
19521;SDS011;9905;52.126;5.596;2022-12-24T14:50:29;100.57;;;67.13;;
19521;SDS011;9905;52.126;5.596;2022-12-24T14:53:02;58.35;;;47.22;;
19521;SDS011;9905;52.126;5.596;2022-12-24T14:55:42;29.10;;;25.70;;
19521;SDS011;9905;52.126;5.596;2022-12-24T14:58:17;25.27;;;21.25;;
19521;SDS011;9905;52.126;5.596;2022-12-24T15:00:53;22.45;;;16.05;;
19521;SDS011;9905;52.126;5.596;2022-12-24T15:03:26;18.95;;;13.43;;
19521;SDS011;9905;52.126;5.596;2022-12-24T15:05:55;16.67;;;12.07;;
19521;SDS011;9905;52.126;5.596;2022-12-24T15:08:28;19.33;;;11.75;;
19521;SDS011;9905;52.126;5.596;2022-12-24T15:10:58;12.93;;;11.45;;
19521;SDS011;9905;52.126;5.596;2022-12-24T15:13:29;17.23;;;10.43;;